Gilt Edge, Tennessee
Current Conditions -  °F | °C
As of 4:50 PM on Friday 28 Nov 2014 (Local Time) from KNQA Reporting Station
Few Clouds Few Clouds  
Wind Chill: 11°   Ceiling: Unl
Heat Index: 11°   Visibility: 10mi
Dew Point: -4°   Wind: 7mph
Humidity: 35%   Direction: 150°SSE
Pressure: 30.14"   Gusts: NA
Location:  35.5541°N, 89.8241°W
Report Text: KNQA 282250Z 15006KT 10SM FEW250 11/M04 A3014
Loading
Personal Weather Stations






























Interactive Weather Map New forecast layout! Learn more

10-Day Weather Forecast

Advertisements
Track Severe Weather on mobile